createdAt,value
2018-12-14T00:00:12.890Z,5.10
2018-12-14T00:02:42.169Z,5.53
2018-12-14T00:05:10.873Z,5.37
2018-12-14T00:07:39.640Z,5.97
2018-12-14T00:10:08.950Z,6.27
2018-12-14T00:12:37.727Z,5.17
2018-12-14T00:15:07.386Z,5.67
2018-12-14T00:17:36.139Z,7.13
2018-12-14T00:20:06.990Z,4.60
2018-12-14T00:22:35.791Z,4.83
2018-12-14T00:25:05.161Z,7.67
2018-12-14T00:27:33.959Z,4.43
2018-12-14T00:30:02.688Z,7.00
2018-12-14T00:32:31.598Z,5.70
2018-12-14T00:35:00.319Z,4.77
2018-12-14T00:37:29.226Z,6.87
2018-12-14T00:39:57.758Z,6.50
2018-12-14T00:42:26.435Z,5.80
2018-12-14T00:44:55.174Z,8.47
2018-12-14T00:47:23.950Z,6.30
2018-12-14T00:49:52.812Z,6.20
2018-12-14T00:52:21.821Z,8.03
2018-12-14T00:54:50.672Z,7.87
2018-12-14T00:57:19.252Z,6.23
2018-12-14T00:59:47.908Z,8.47
2018-12-14T01:02:21.802Z,8.07
2018-12-14T01:04:50.593Z,7.90
2018-12-14T01:07:19.294Z,9.83
2018-12-14T01:09:47.939Z,10.43
2018-12-14T01:12:16.727Z,9.17
2018-12-14T01:14:45.467Z,12.10
2018-12-14T01:17:14.280Z,11.80
2018-12-14T01:19:42.969Z,9.80
2018-12-14T01:22:11.845Z,10.70
2018-12-14T01:24:40.425Z,12.80
2018-12-14T01:27:09.157Z,11.10
2018-12-14T01:29:38.000Z,12.07
2018-12-14T01:32:06.701Z,13.10
2018-12-14T01:34:35.514Z,12.87
2018-12-14T01:37:04.251Z,13.77
2018-12-14T01:39:32.852Z,13.80
2018-12-14T01:42:04.799Z,13.53
2018-12-14T01:44:32.519Z,13.30
2018-12-14T01:47:01.182Z,13.97
2018-12-14T01:49:29.835Z,12.10
2018-12-14T01:51:58.383Z,11.67
2018-12-14T01:54:27.240Z,13.57
2018-12-14T01:56:56.284Z,13.50
2018-12-14T01:59:24.951Z,14.10
2018-12-14T02:01:53.906Z,15.37
2018-12-14T02:04:22.615Z,16.73
2018-12-14T02:06:51.394Z,14.40
2018-12-14T02:09:20.356Z,16.13
2018-12-14T02:11:49.058Z,15.10
2018-12-14T02:14:17.891Z,15.40
2018-12-14T02:16:46.989Z,13.30
2018-12-14T02:19:15.627Z,15.90
2018-12-14T02:21:44.324Z,13.77
2018-12-14T02:24:13.298Z,14.47
2018-12-14T02:26:41.944Z,11.20
2018-12-14T02:29:10.584Z,12.67
2018-12-14T02:31:39.327Z,13.03
2018-12-14T02:34:08.031Z,16.17
2018-12-14T02:36:37.395Z,13.70
2018-12-14T02:39:06.514Z,15.33
2018-12-14T02:41:35.196Z,12.20
2018-12-14T02:44:03.735Z,11.97
2018-12-14T02:46:32.301Z,16.77
2018-12-14T02:49:01.160Z,12.43
2018-12-14T02:51:29.882Z,13.53
2018-12-14T02:53:58.640Z,14.30
2018-12-14T02:56:27.425Z,13.03
2018-12-14T02:58:56.407Z,13.50
2018-12-14T03:01:25.080Z,14.80
2018-12-14T03:03:53.816Z,11.67
2018-12-14T03:06:22.424Z,11.17
2018-12-14T03:08:51.257Z,12.87
2018-12-14T03:11:20.109Z,15.20
2018-12-14T03:13:48.874Z,13.47
2018-12-14T03:16:17.535Z,12.20
2018-12-14T03:18:46.321Z,10.43
2018-12-14T03:21:15.035Z,11.77
2018-12-14T03:23:43.701Z,12.33
2018-12-14T03:26:12.439Z,12.27
2018-12-14T03:28:41.664Z,11.47
2018-12-14T03:31:10.684Z,11.33
2018-12-14T03:33:39.299Z,12.70
2018-12-14T03:36:08.139Z,11.47
2018-12-14T03:38:36.606Z,11.20
2018-12-14T03:41:05.733Z,11.70
2018-12-14T03:43:34.400Z,11.07
2018-12-14T03:46:03.307Z,12.67
2018-12-14T03:48:31.968Z,14.00
2018-12-14T03:51:00.626Z,9.50
2018-12-14T03:53:29.245Z,12.93
2018-12-14T03:55:57.966Z,11.97
2018-12-14T03:58:26.837Z,12.27
2018-12-14T04:00:55.721Z,14.73
2018-12-14T04:03:24.498Z,10.97
2018-12-14T04:05:53.134Z,16.03
2018-12-14T04:08:21.823Z,13.20
2018-12-14T04:10:50.530Z,11.73
2018-12-14T04:13:18.961Z,13.60
2018-12-14T04:15:47.730Z,15.37
2018-12-14T04:18:16.346Z,16.73
2018-12-14T04:20:45.224Z,15.97
2018-12-14T04:23:13.963Z,13.23
2018-12-14T04:25:42.854Z,12.43
2018-12-14T04:28:11.772Z,11.37
2018-12-14T04:30:40.426Z,13.97
2018-12-14T04:33:09.273Z,15.13
2018-12-14T04:35:38.033Z,14.00
2018-12-14T04:38:06.810Z,13.97
2018-12-14T04:40:35.563Z,11.73
2018-12-14T04:43:04.385Z,12.90
2018-12-14T04:45:33.143Z,11.57
2018-12-14T04:48:01.951Z,11.07
2018-12-14T04:50:30.818Z,16.53
2018-12-14T04:52:59.523Z,12.67
2018-12-14T04:55:28.333Z,11.40
2018-12-14T04:57:57.335Z,14.60
2018-12-14T05:00:26.154Z,13.60
2018-12-14T05:02:54.762Z,17.10
2018-12-14T05:05:23.927Z,13.87
2018-12-14T05:07:52.579Z,14.80
2018-12-14T05:10:21.457Z,11.10
2018-12-14T05:12:56.069Z,11.90
2018-12-14T05:15:21.093Z,10.67
2018-12-14T05:17:49.878Z,11.90
2018-12-14T05:20:18.801Z,12.83
2018-12-14T05:22:47.649Z,11.93
2018-12-14T05:25:16.448Z,10.80
2018-12-14T05:27:45.237Z,12.90
2018-12-14T05:30:14.332Z,12.63
2018-12-14T05:32:43.162Z,10.40
2018-12-14T05:35:11.810Z,9.90
2018-12-14T05:37:40.635Z,11.93
2018-12-14T05:40:09.314Z,12.40
2018-12-14T05:42:38.166Z,14.13
2018-12-14T05:45:07.328Z,17.40
2018-12-14T05:47:36.337Z,12.23
2018-12-14T05:50:05.402Z,12.83
2018-12-14T05:52:34.136Z,11.23
2018-12-14T05:55:03.112Z,11.90
2018-12-14T05:57:32.121Z,11.13
2018-12-14T06:00:01.215Z,13.63
2018-12-14T06:02:30.069Z,13.93
2018-12-14T06:04:58.676Z,11.97
2018-12-14T06:07:27.491Z,12.57
2018-12-14T06:09:56.470Z,10.97
2018-12-14T06:12:25.252Z,9.40
2018-12-14T06:14:54.093Z,13.43
2018-12-14T06:17:22.764Z,11.63
2018-12-14T06:19:52.271Z,13.87
2018-12-14T06:22:20.917Z,12.60
2018-12-14T06:24:49.808Z,12.30
2018-12-14T06:27:18.494Z,13.13
2018-12-14T06:29:47.101Z,11.10
2018-12-14T06:32:15.683Z,10.73
2018-12-14T06:34:44.423Z,13.03
2018-12-14T06:37:13.478Z,15.70
2018-12-14T06:39:42.324Z,10.37
2018-12-14T06:42:11.632Z,11.27
2018-12-14T06:44:40.441Z,10.27
2018-12-14T06:47:09.409Z,10.97
2018-12-14T06:49:38.084Z,123.80
2018-12-14T06:52:06.880Z,11.10
2018-12-14T06:54:35.395Z,11.63
2018-12-14T06:57:04.332Z,14.77
2018-12-14T06:59:32.998Z,12.27
2018-12-14T07:02:01.734Z,12.17
2018-12-14T07:04:38.098Z,12.20
2018-12-14T07:07:11.152Z,14.67
2018-12-14T07:09:39.862Z,15.33
2018-12-14T07:12:08.795Z,13.27
2018-12-14T07:14:37.586Z,16.07
2018-12-14T07:17:06.142Z,24.20
2018-12-14T07:19:34.791Z,21.37
2018-12-14T07:22:03.694Z,21.17
2018-12-14T07:24:32.487Z,17.03
2018-12-14T07:27:01.275Z,15.47
2018-12-14T07:29:29.892Z,15.37
2018-12-14T07:31:58.909Z,14.37
2018-12-14T07:34:27.710Z,11.23
2018-12-14T07:36:56.630Z,36.77
2018-12-14T07:39:25.495Z,16.87
2018-12-14T07:41:54.237Z,14.73
2018-12-14T07:44:23.023Z,10.73
2018-12-14T07:46:51.932Z,12.93
2018-12-14T07:49:20.668Z,13.47
2018-12-14T07:51:49.452Z,14.10
2018-12-14T07:54:18.196Z,10.70
2018-12-14T07:56:47.002Z,10.33
2018-12-14T07:59:15.847Z,11.20
2018-12-14T08:01:44.480Z,12.50
2018-12-14T08:04:13.609Z,14.13
2018-12-14T08:06:42.366Z,15.10
2018-12-14T08:09:11.636Z,18.73
2018-12-14T08:11:40.370Z,16.90
2018-12-14T08:14:09.088Z,14.23
2018-12-14T08:16:37.925Z,14.83
2018-12-14T08:19:06.612Z,17.80
2018-12-14T08:21:35.340Z,15.23
2018-12-14T08:24:03.985Z,17.87
2018-12-14T08:26:32.599Z,13.83
2018-12-14T08:29:01.263Z,14.27
2018-12-14T08:31:30.226Z,15.67
2018-12-14T08:33:58.874Z,15.00
2018-12-14T08:36:27.510Z,12.17
2018-12-14T08:38:56.271Z,17.13
2018-12-14T08:41:25.200Z,14.87
2018-12-14T08:43:53.999Z,15.20
2018-12-14T08:46:22.662Z,17.80
2018-12-14T08:48:51.573Z,14.07
2018-12-14T08:51:20.287Z,10.37
2018-12-14T08:53:49.177Z,10.27
2018-12-14T08:56:17.808Z,13.77
2018-12-14T08:58:46.694Z,12.50
2018-12-14T09:01:15.671Z,18.10
2018-12-14T09:03:44.278Z,15.30
2018-12-14T09:06:13.278Z,16.80
2018-12-14T09:08:41.941Z,16.17
2018-12-14T09:11:10.638Z,17.80
2018-12-14T09:13:39.374Z,19.97
2018-12-14T09:16:08.207Z,21.33
2018-12-14T09:18:37.010Z,15.93
2018-12-14T09:21:05.680Z,17.57
2018-12-14T09:23:34.488Z,19.57
2018-12-14T09:26:03.251Z,19.50
2018-12-14T09:28:32.432Z,22.33
2018-12-14T09:31:01.083Z,23.60
2018-12-14T09:33:29.841Z,25.77
2018-12-14T09:35:58.475Z,22.33
2018-12-14T09:38:27.316Z,21.90
2018-12-14T09:40:56.103Z,27.03
2018-12-14T09:43:24.861Z,27.13
2018-12-14T09:45:53.660Z,30.97
2018-12-14T09:48:22.424Z,29.27
2018-12-14T09:50:51.243Z,29.90
2018-12-14T09:53:19.938Z,28.80
2018-12-14T09:55:48.712Z,24.33
2018-12-14T09:58:17.497Z,28.10
2018-12-14T10:00:46.241Z,23.93
2018-12-14T10:03:14.782Z,25.07
2018-12-14T10:05:43.387Z,27.43
2018-12-14T10:08:12.519Z,28.67
2018-12-14T10:10:41.562Z,29.90
2018-12-14T10:13:10.177Z,36.57
2018-12-14T10:15:39.127Z,50.33
2018-12-14T10:18:07.895Z,33.60
2018-12-14T10:20:36.969Z,36.50
2018-12-14T10:23:05.772Z,35.07
2018-12-14T10:25:34.360Z,38.00
2018-12-14T10:28:03.006Z,36.30
2018-12-14T10:30:31.837Z,39.13
2018-12-14T10:33:00.574Z,39.33
2018-12-14T10:35:29.202Z,45.37
2018-12-14T10:37:57.804Z,46.57
2018-12-14T10:40:26.572Z,51.43
2018-12-14T10:42:55.354Z,52.87
2018-12-14T10:45:25.179Z,53.60
2018-12-14T10:47:53.882Z,47.23
2018-12-14T10:50:22.542Z,53.27
2018-12-14T10:52:51.247Z,47.70
2018-12-14T10:55:20.034Z,44.47
2018-12-14T10:57:48.886Z,43.50
2018-12-14T11:00:23.343Z,46.63
2018-12-14T11:02:52.080Z,47.30
2018-12-14T11:05:20.867Z,52.70
2018-12-14T11:07:49.643Z,57.07
2018-12-14T11:10:18.289Z,52.13
2018-12-14T11:12:47.234Z,52.93
2018-12-14T11:15:15.960Z,55.53
2018-12-14T11:17:44.690Z,53.70
2018-12-14T11:20:13.318Z,58.93
2018-12-14T11:22:42.075Z,54.83
2018-12-14T11:25:11.266Z,57.23
2018-12-14T11:27:39.977Z,57.87
2018-12-14T11:30:10.151Z,60.03
2018-12-14T11:32:38.853Z,55.20
2018-12-14T11:35:07.871Z,65.17
2018-12-14T11:37:36.550Z,61.13
2018-12-14T11:40:06.722Z,64.70
2018-12-14T11:42:35.467Z,55.50
2018-12-14T11:45:04.692Z,49.70
2018-12-14T11:47:33.238Z,55.57
2018-12-14T11:50:01.900Z,51.43
2018-12-14T11:52:30.366Z,57.60
2018-12-14T11:54:59.639Z,55.00
2018-12-14T11:57:28.438Z,59.93
2018-12-14T11:59:57.010Z,60.47
2018-12-14T12:02:25.799Z,59.40
2018-12-14T12:04:54.435Z,61.17
2018-12-14T12:07:23.258Z,56.73
2018-12-14T12:09:52.038Z,53.67
2018-12-14T12:12:21.180Z,61.30
2018-12-14T12:14:49.770Z,54.30
2018-12-14T12:17:18.624Z,60.53
2018-12-14T12:19:47.371Z,61.27
2018-12-14T12:22:16.009Z,60.67
2018-12-14T12:24:44.614Z,54.07
2018-12-14T12:27:13.250Z,50.97
2018-12-14T12:29:41.947Z,47.43
2018-12-14T12:32:10.735Z,49.03
2018-12-14T12:34:39.583Z,46.33
2018-12-14T12:37:08.315Z,49.27
2018-12-14T12:39:36.854Z,45.27
2018-12-14T12:42:05.785Z,45.93
2018-12-14T12:44:34.559Z,45.43
2018-12-14T12:47:03.216Z,42.63
2018-12-14T12:49:32.023Z,48.07
2018-12-14T12:52:00.871Z,43.57
2018-12-14T12:54:30.050Z,43.97
2018-12-14T12:56:58.509Z,44.60
2018-12-14T12:59:27.603Z,43.07
2018-12-14T13:01:56.414Z,36.97
2018-12-14T13:04:25.069Z,39.13
2018-12-14T13:06:54.045Z,34.83
2018-12-14T13:09:22.622Z,38.27
2018-12-14T13:11:51.310Z,37.70
2018-12-14T13:14:19.802Z,33.20
2018-12-14T13:16:48.550Z,34.37
2018-12-14T13:19:23.944Z,30.33
2018-12-14T13:21:52.604Z,29.60
2018-12-14T13:24:21.402Z,25.20
2018-12-14T13:26:50.183Z,28.30
2018-12-14T13:29:19.047Z,25.03
2018-12-14T13:31:47.889Z,28.97
2018-12-14T13:34:16.546Z,24.70
2018-12-14T13:36:45.257Z,24.47
2018-12-14T13:39:14.018Z,27.50
2018-12-14T13:41:42.826Z,25.60
2018-12-14T13:44:11.600Z,26.40
2018-12-14T13:46:40.460Z,28.43
2018-12-14T13:49:09.427Z,31.77
2018-12-14T13:51:38.113Z,24.23
2018-12-14T13:54:06.695Z,28.40
2018-12-14T13:56:35.386Z,31.30
2018-12-14T13:59:04.015Z,28.73
2018-12-14T14:01:32.721Z,29.50
2018-12-14T14:04:01.811Z,31.20
2018-12-14T14:06:30.576Z,36.97
2018-12-14T14:08:59.310Z,32.87
2018-12-14T14:11:27.975Z,33.47
2018-12-14T14:13:56.654Z,32.27
2018-12-14T14:16:29.374Z,30.90
2018-12-14T14:18:58.013Z,29.23
2018-12-14T14:21:27.011Z,26.40
2018-12-14T14:23:55.798Z,32.37
2018-12-14T14:26:24.689Z,27.20
2018-12-14T14:28:53.579Z,24.27
2018-12-14T14:31:22.435Z,30.90
2018-12-14T14:33:51.069Z,27.93
2018-12-14T14:36:19.844Z,25.10
2018-12-14T14:38:48.721Z,21.60
2018-12-14T14:41:17.921Z,20.73
2018-12-14T14:43:46.614Z,23.17
2018-12-14T14:46:15.499Z,22.93
2018-12-14T14:48:44.442Z,29.77
2018-12-14T14:51:13.258Z,22.70
2018-12-14T14:53:41.839Z,26.77
2018-12-14T14:56:10.527Z,26.07
2018-12-14T14:58:39.339Z,27.50
2018-12-14T15:01:08.129Z,28.80
2018-12-14T15:03:36.851Z,29.13
2018-12-14T15:06:05.558Z,34.37
2018-12-14T15:08:34.166Z,36.43
2018-12-14T15:11:03.047Z,34.87
2018-12-14T15:13:31.646Z,36.40
2018-12-14T15:16:00.446Z,34.20
2018-12-14T15:18:29.153Z,30.93
2018-12-14T15:20:57.916Z,32.13
2018-12-14T15:23:26.518Z,35.60
2018-12-14T15:25:55.282Z,33.10
2018-12-14T15:28:24.057Z,34.37
2018-12-14T15:30:53.061Z,39.23
2018-12-14T15:33:21.899Z,35.40
2018-12-14T15:35:53.504Z,36.87
2018-12-14T15:38:22.376Z,36.67
2018-12-14T15:40:51.138Z,39.70
2018-12-14T15:43:19.969Z,38.10
2018-12-14T15:45:48.614Z,44.83
2018-12-14T15:48:17.276Z,42.67
2018-12-14T15:50:46.107Z,34.57
2018-12-14T15:53:14.763Z,33.10
2018-12-14T15:55:43.356Z,36.80
2018-12-14T15:58:11.977Z,35.00
2018-12-14T16:00:40.683Z,37.60
2018-12-14T16:03:09.225Z,36.63
2018-12-14T16:05:37.854Z,39.27
2018-12-14T16:08:06.782Z,41.10
2018-12-14T16:10:35.479Z,40.17
2018-12-14T16:13:04.184Z,38.53
2018-12-14T16:15:32.952Z,123.43
2018-12-14T16:18:01.937Z,45.40
2018-12-14T16:20:30.467Z,41.63
2018-12-14T16:22:59.265Z,37.37
2018-12-14T16:25:28.050Z,40.20
2018-12-14T16:27:56.986Z,38.03
2018-12-14T16:30:25.622Z,36.97
2018-12-14T16:32:54.552Z,35.90
2018-12-14T16:35:23.466Z,33.67
2018-12-14T16:37:52.172Z,31.43
2018-12-14T16:40:21.160Z,35.77
2018-12-14T16:42:49.772Z,35.47
2018-12-14T16:45:26.619Z,33.73
2018-12-14T16:47:55.654Z,35.67
2018-12-14T16:50:24.375Z,31.63
2018-12-14T16:52:52.964Z,29.13
2018-12-14T16:55:21.695Z,31.00
2018-12-14T16:57:50.539Z,30.80
2018-12-14T17:00:19.149Z,30.83
2018-12-14T17:02:47.931Z,33.73
2018-12-14T17:05:16.658Z,28.10
2018-12-14T17:07:45.503Z,26.67
2018-12-14T17:10:14.255Z,25.67
2018-12-14T17:12:42.947Z,24.70
2018-12-14T17:15:11.722Z,21.93
2018-12-14T17:17:40.461Z,24.10
2018-12-14T17:20:09.340Z,25.43
2018-12-14T17:22:38.232Z,24.50
2018-12-14T17:25:07.483Z,23.13
2018-12-14T17:27:36.212Z,20.80
2018-12-14T17:30:05.499Z,19.17
2018-12-14T17:32:34.403Z,21.37
2018-12-14T17:35:03.022Z,24.33
2018-12-14T17:37:31.854Z,23.07
2018-12-14T17:40:00.506Z,33.00
2018-12-14T17:42:29.348Z,26.90
2018-12-14T17:44:57.893Z,28.50
2018-12-14T17:47:26.532Z,32.93
2018-12-14T17:49:55.284Z,25.97
2018-12-14T17:52:23.987Z,24.03
2018-12-14T17:54:52.881Z,23.80
2018-12-14T17:57:21.748Z,20.57
2018-12-14T17:59:50.427Z,19.00
2018-12-14T18:02:19.140Z,19.33
2018-12-14T18:04:47.984Z,16.27
2018-12-14T18:07:16.796Z,20.50
2018-12-14T18:09:45.500Z,19.60
2018-12-14T18:12:14.263Z,16.10
2018-12-14T18:14:43.041Z,15.57
2018-12-14T18:17:11.805Z,13.97
2018-12-14T18:19:40.778Z,15.40
2018-12-14T18:22:09.642Z,15.63
2018-12-14T18:24:38.395Z,12.43
2018-12-14T18:27:07.308Z,15.70
2018-12-14T18:29:36.124Z,14.07
2018-12-14T18:32:05.095Z,15.33
2018-12-14T18:34:33.831Z,16.93
2018-12-14T18:37:02.582Z,23.37
2018-12-14T18:39:31.300Z,19.90
2018-12-14T18:41:59.890Z,21.53
2018-12-14T18:44:28.795Z,23.20
2018-12-14T18:46:57.314Z,16.53
2018-12-14T18:49:26.182Z,13.37
2018-12-14T18:51:55.009Z,10.63
2018-12-14T18:54:23.881Z,13.40
2018-12-14T18:56:52.669Z,10.20
2018-12-14T18:59:21.456Z,15.80
2018-12-14T19:01:50.127Z,12.33
2018-12-14T19:04:18.853Z,8.97
2018-12-14T19:06:47.716Z,10.97
2018-12-14T19:09:16.607Z,8.63
2018-12-14T19:11:45.291Z,7.63
2018-12-14T19:14:14.106Z,9.50
2018-12-14T19:16:42.550Z,8.17
2018-12-14T19:19:11.349Z,6.37
2018-12-14T19:21:40.187Z,5.83
2018-12-14T19:24:08.893Z,6.00
2018-12-14T19:26:37.526Z,6.60
2018-12-14T19:29:06.233Z,9.57
2018-12-14T19:31:34.910Z,11.63
2018-12-14T19:34:03.534Z,11.03
2018-12-14T19:36:32.241Z,14.57
2018-12-14T19:39:01.027Z,10.60
2018-12-14T19:41:30.006Z,7.97
2018-12-14T19:43:58.750Z,10.70
2018-12-14T19:46:27.416Z,11.27
2018-12-14T19:48:56.017Z,10.90
2018-12-14T19:51:24.823Z,9.40
2018-12-14T19:53:53.663Z,10.63
2018-12-14T19:56:22.344Z,8.37
2018-12-14T19:58:51.392Z,7.67
2018-12-14T20:01:19.964Z,7.27
2018-12-14T20:03:48.561Z,5.17
2018-12-14T20:06:17.390Z,4.63
2018-12-14T20:08:45.979Z,5.27
2018-12-14T20:11:14.749Z,7.27
2018-12-14T20:13:43.446Z,6.70
2018-12-14T20:16:12.824Z,6.30
2018-12-14T20:18:41.630Z,7.93
2018-12-14T20:21:10.402Z,9.80
2018-12-14T20:23:39.061Z,7.10
2018-12-14T20:26:07.474Z,6.03
2018-12-14T20:28:36.358Z,7.53
2018-12-14T20:31:05.058Z,6.17
2018-12-14T20:33:33.955Z,6.77
2018-12-14T20:36:02.766Z,8.53
2018-12-14T20:38:31.433Z,7.50
2018-12-14T20:41:00.080Z,7.47
2018-12-14T20:43:28.561Z,6.73
2018-12-14T20:45:57.331Z,5.57
2018-12-14T20:48:26.062Z,7.30
2018-12-14T20:50:54.809Z,8.20
2018-12-14T20:53:24.615Z,6.93
2018-12-14T20:55:53.432Z,6.70
2018-12-14T20:58:22.095Z,5.97
2018-12-14T21:00:50.579Z,4.77
2018-12-14T21:03:19.123Z,7.60
2018-12-14T21:05:47.882Z,6.30
2018-12-14T21:08:16.569Z,8.60
2018-12-14T21:10:45.457Z,7.30
2018-12-14T21:13:14.252Z,6.40
2018-12-14T21:15:43.135Z,6.17
2018-12-14T21:18:11.936Z,17.63
2018-12-14T21:20:40.591Z,13.97
2018-12-14T21:23:09.293Z,6.60
2018-12-14T21:25:38.145Z,7.00
2018-12-14T21:28:06.774Z,7.37
2018-12-14T21:30:35.525Z,7.50
2018-12-14T21:33:04.238Z,7.10
2018-12-14T21:35:33.231Z,9.70
2018-12-14T21:38:02.050Z,10.00
2018-12-14T21:40:30.807Z,8.43
2018-12-14T21:42:59.635Z,7.93
2018-12-14T21:45:28.294Z,6.60
2018-12-14T21:47:57.122Z,6.50
2018-12-14T21:50:25.742Z,7.37
2018-12-14T21:52:54.548Z,7.77
2018-12-14T21:55:23.326Z,6.63
2018-12-14T21:57:52.485Z,7.27
2018-12-14T22:00:21.210Z,6.10
2018-12-14T22:02:49.854Z,8.47
2018-12-14T22:05:18.623Z,10.40
2018-12-14T22:07:47.346Z,6.13
2018-12-14T22:10:16.230Z,8.43
2018-12-14T22:12:44.924Z,7.87
2018-12-14T22:15:13.724Z,8.90
2018-12-14T22:17:42.777Z,8.07
2018-12-14T22:20:11.559Z,7.63
2018-12-14T22:22:40.113Z,9.07
2018-12-14T22:25:08.982Z,8.30
2018-12-14T22:27:37.654Z,7.63
2018-12-14T22:30:06.556Z,9.30
2018-12-14T22:32:35.290Z,8.83
2018-12-14T22:35:04.070Z,9.73
2018-12-14T22:37:32.802Z,9.07
2018-12-14T22:40:01.609Z,9.10
2018-12-14T22:42:30.496Z,7.87
2018-12-14T22:44:59.120Z,8.30
2018-12-14T22:47:27.717Z,9.40
2018-12-14T22:49:56.630Z,9.87
2018-12-14T22:52:25.318Z,7.80
2018-12-14T22:54:54.217Z,8.17
2018-12-14T22:57:22.811Z,10.50
2018-12-14T22:59:51.753Z,10.00
2018-12-14T23:02:20.366Z,7.70
2018-12-14T23:04:49.174Z,7.67
2018-12-14T23:07:17.977Z,7.67
2018-12-14T23:09:46.680Z,9.30
2018-12-14T23:12:15.415Z,7.87
2018-12-14T23:14:44.089Z,7.80
2018-12-14T23:17:12.987Z,7.80
2018-12-14T23:19:41.658Z,8.47
2018-12-14T23:22:10.583Z,8.60
2018-12-14T23:24:39.374Z,8.10
2018-12-14T23:27:08.256Z,7.97
2018-12-14T23:29:36.914Z,8.10
2018-12-14T23:32:05.837Z,9.27
2018-12-14T23:34:34.471Z,11.83
2018-12-14T23:37:03.389Z,9.20
2018-12-14T23:39:32.042Z,8.17
2018-12-14T23:42:00.782Z,8.47
2018-12-14T23:44:29.548Z,8.37
2018-12-14T23:46:59.006Z,8.07
2018-12-14T23:49:27.825Z,11.20
2018-12-14T23:51:56.496Z,9.27
2018-12-14T23:54:25.334Z,9.07
2018-12-14T23:56:54.121Z,8.77
2018-12-14T23:59:23.011Z,9.13
